Aztec, NM

7:45 AM MST on February 01, 2015 (GMT -0700)
Aztec, NM 87410 | Change Station
CLOSE
Current Station
Personal Weather Station
Location: Aztec, NM
Elevation: 5682 ft
Nearby Weather Stations

Elev 5682 ft 36.82 °N, 107.99 °W | Updated 13 minutes ago

Fog
Fog
28.7 °F
Feels Like 29 °F
N
1.1
Wind Variable Wind from NNE

Today
High -- | Low -- °F
--% Chance of Precip.
Yesterday
High -- | Low -- °F
Precip. -- in
7:14 AM 5:37 PM
Waxing Gibbous, 95% visible
Pressure 30.09 in
Visibility 0.2 miles
Clouds
Windchill 29 °F
Dew Point 27 °F
Humidity 94%
Rainfall 0.00 in
Snow Depth Not available.
UV Not available.
Pollen .20 out of 12
Air Quality Not available.
Flu Activity Not available.
SPECI KFMN 011431Z 00000KT 1/4SM FZFG VV003 M02/M02 A3009 RMK AO2 T10171017

More Conditions Fewer Conditions

Pressure 30.09 in
Visibility 0.2 miles
Clouds
Windchill 29 °F
Dew Point 27 °F
Humidity 94%
Rainfall 0.00 in
Snow Depth Not available.
UV Not available.
Pollen .20 out of 12
Air Quality Not available.
Flu Activity Not available.
SPECI KFMN 011431Z 00000KT 1/4SM FZFG VV003 M02/M02 A3009 RMK AO2 T10171017

More Conditions Fewer Conditions

Nowcast | as of 6:54 am MST on February 1, 2015

Areas of low clouds and fog will continue over western New Mexico through mid morning. With temperatures below freezing...moisture on Road surfaces will result in some patches of black ice. Higher elevation secondary roads will retain areas of snow and ice cover. Also...fog will be locally dense and reduce visibilities to one half mile or less...including the Farmington and Gallup areas. For the latest Road conditions visit N M roads dot com or dial 5 1 1.

×

10-Day Weather Forecast

Almanac

Astronomy

Feb. 01, 2015 Rise Set
Actual Time
Civil Twilight
Nautical Twilight
Astronomical Twilight
Moon
Length of Visible Light
Length of Day
Tomorrow will be .
, % of the Moon is Illuminated

Today's Extremes

State Highs State Lows

Community

WunderPhotos

Upload Photos

1,792,362 photos uploaded!

WunderBlogs® & News

Nearby

Air Quality

  Air Quality AQ Index Pollutant
Not available.

Snow Depth

Station Depth Elevation

Earthquake Activity

City Distance Mag. Time & Date
Minimum magnitude displayed is 2.5.

Coastal Water Temperatures

Place Temperature

Nearby Weather Stations